Pagrindinis puslapis
METAR-TAF:

METAR-TAF

Oro uostai :

Noršiopingas, Švedija

platuma: 58-35N, ilguma: 016-09E, Aukštis: 34 m

Dabartinis oras

Ataskaita buvo paskelbta 13 minutes, ne 10:20 UTC
Vėjas 3 kt nuo kintamojo kryptimis
Temperatūra 9°C
Drėgmė 93%
Slėgis 1004 hPa
Matomumas 10 km arba daugiau
Išsisklaidę debesys ne aukštis 4200 ft

METAR: ESSP 291020Z VRB03KT 9999 SCT042 09/08 Q1004

Laikas: 11:33 (10:33 UTC)

Prognozė

Ataskaita buvo paskelbta 2 valandos ir 3 minutes, ne 08:30 UTC
Prognozė galioja nuo 29 metu 09 UTC su 29 metu 14 UTC
Vėjas 4 kt iš Pietų
Matomumas 10 km arba daugiau
Išsisklaidę debesys ne aukštis 600 ft
Tikimybė 40%
nuo 29 metu 11 UTC su 29 metu 14 UTC
Išsisklaidę debesys ne aukštis 3000 ft, aukštai iškilę kamuoliniai debesys.

TAF: ESSP 290830Z 2909/2914 19004KT 9999 SCT006 PROB40 2911/2914 SCT030TCU

Orai ataskaitas ir orų prognozės (METAR, TAF).

turimą stotys yra geltonos ir raudonos taškus žemėlapyje.

Perkelti pele per norėdami pamatyti stoties vardą.

Tada spustelėkite, norėdami matyti oro stebėjimo ir prognozės.

Norėdami pakeisti žemėlapį: spustelėkite ant žalios mygtukų su juodo kryžiaus žemyn,; žalią mygtuką su brūkšneliu, jei norite nutolinti; arba žalių rodyklių gretimoms žemėlapius.


METAR-TAF: